Time;durP1;ratioP1;P1;durP2;ratioP2;P2;SDS_P1;SDS_P2;PMS_P1;PMS_P2;Temp;Humidity;BMP_temperature;BMP_pressure;BME280_temperature;BME280_humidity;BME280_pressure;Samples;Min_cycle;Max_cycle;Signal;HPM_P1;HPM_P2
2022/05/24 00:00:51;;;;;;;509.33;487.50;;;14.70;99.90;;;;;;5054176;28;20482;-82
2022/05/24 00:03:20;;;;;;;499.30;477.10;;;14.70;99.90;;;;;;5054379;28;20479;-82
2022/05/24 00:05:47;;;;;;;468.60;448.60;;;14.70;99.90;;;;;;5054592;28;20460;-82
2022/05/24 00:08:15;;;;;;;470.57;451.30;;;14.70;99.90;;;;;;5053755;28;20458;-84
2022/05/24 00:10:42;;;;;;;444.13;426.40;;;14.60;99.90;;;;;;5054349;28;20476;-82
2022/05/24 00:13:10;;;;;;;429.57;412.27;;;14.70;99.90;;;;;;5054054;28;20471;-82
2022/05/24 00:15:37;;;;;;;436.20;418.80;;;14.70;99.90;;;;;;5053915;28;20479;-82
2022/05/24 00:18:05;;;;;;;454.13;435.47;;;14.70;99.90;;;;;;5054148;28;20455;-82
2022/05/24 00:20:35;;;;;;;465.73;446.57;;;14.70;99.90;;;;;;5053920;28;20859;-82
2022/05/24 00:23:02;;;;;;;447.37;429.33;;;14.70;99.90;;;;;;5054390;28;20821;-82
2022/05/24 00:25:33;;;;;;;460.33;441.53;;;14.70;99.90;;;;;;5053979;28;20464;-82
2022/05/24 00:28:00;;;;;;;471.73;452.53;;;14.60;99.90;;;;;;5054107;28;20981;-82
2022/05/24 00:30:28;;;;;;;470.77;451.10;;;14.70;99.90;;;;;;5053095;28;20487;-82
2022/05/24 00:32:54;;;;;;;453.40;433.80;;;14.70;99.90;;;;;;5054446;28;20738;-83
2022/05/24 00:35:21;;;;;;;429.93;412.27;;;14.60;99.90;;;;;;5053959;28;20513;-82
2022/05/24 00:37:49;;;;;;;458.67;439.47;;;14.70;99.90;;;;;;5053825;28;20448;-82
2022/05/24 00:40:26;;;;;;;442.53;424.33;;;14.70;99.90;;;;;;5052949;28;20512;-82
2022/05/24 00:42:54;;;;;;;454.83;436.33;;;14.60;99.90;;;;;;5053522;28;20447;-82
2022/05/24 00:45:24;;;;;;;478.47;458.00;;;14.60;99.90;;;;;;5052925;28;20458;-82
2022/05/24 00:47:54;;;;;;;490.10;469.10;;;14.60;99.90;;;;;;5053471;28;20463;-82
2022/05/24 00:50:25;;;;;;;498.47;476.43;;;14.60;99.90;;;;;;5052705;28;20567;-82
2022/05/24 00:52:57;;;;;;;483.13;461.87;;;14.60;99.90;;;;;;5053391;28;20458;-82
2022/05/24 00:55:25;;;;;;;485.00;464.07;;;14.70;99.90;;;;;;5053534;28;20452;-82
2022/05/24 00:58:02;;;;;;;440.87;422.87;;;14.70;99.90;;;;;;5053826;28;20684;-82
2022/05/24 01:00:29;;;;;;;436.17;418.07;;;14.70;99.90;;;;;;5052289;28;20475;-82
2022/05/24 01:02:55;;;;;;;384.10;368.00;;;14.70;99.90;;;;;;5053770;28;20459;-83
2022/05/24 01:05:25;;;;;;;348.00;334.77;;;14.80;99.90;;;;;;5054303;28;20458;-84
2022/05/24 01:07:52;;;;;;;288.87;277.40;;;14.80;99.90;;;;;;5054042;28;20448;-82
2022/05/24 01:10:23;;;;;;;264.50;254.37;;;14.70;99.90;;;;;;5053301;28;20490;-82
2022/05/24 01:12:57;;;;;;;283.73;273.33;;;14.70;99.90;;;;;;5053521;28;20826;-82
2022/05/24 01:15:24;;;;;;;315.37;303.30;;;14.70;99.90;;;;;;5053316;28;20455;-82
2022/05/24 01:17:53;;;;;;;315.50;304.20;;;14.70;99.90;;;;;;5054186;28;20459;-82
2022/05/24 01:20:20;;;;;;;317.87;306.17;;;14.60;99.90;;;;;;5053226;28;20476;-82
2022/05/24 01:23:12;;;;;;;312.87;301.37;;;14.60;99.90;;;;;;5054064;28;20451;-82
2022/05/24 01:25:48;;;;;;;346.53;333.40;;;14.60;99.90;;;;;;5053693;28;20455;-83
2022/05/24 01:28:25;;;;;;;334.97;322.60;;;14.40;99.90;;;;;;5053569;28;20826;-81
2022/05/24 01:30:53;;;;;;;345.80;332.30;;;14.50;99.90;;;;;;5054628;28;20509;-83
2022/05/24 01:36:10;;;;;;;379.57;365.27;;;14.40;99.90;;;;;;5053933;28;20481;-82
2022/05/24 01:38:38;;;;;;;359.50;346.00;;;14.30;99.90;;;;;;5052534;28;20461;-82
2022/05/24 01:41:05;;;;;;;295.67;284.77;;;14.30;99.90;;;;;;5053162;28;20984;-82
2022/05/24 01:43:33;;;;;;;265.73;255.73;;;14.20;99.90;;;;;;5053682;28;20463;-82
2022/05/24 01:46:03;;;;;;;234.63;226.30;;;14.20;99.90;;;;;;5053160;28;20944;-82
2022/05/24 01:48:33;;;;;;;237.67;229.07;;;14.10;99.90;;;;;;5053307;28;20550;-82
2022/05/24 01:51:02;;;;;;;239.13;230.67;;;14.10;99.90;;;;;;5053393;28;20979;-82
2022/05/24 01:53:34;;;;;;;190.03;182.77;;;14.10;99.90;;;;;;5053979;28;20458;-83
2022/05/24 01:56:02;;;;;;;174.83;168.27;;;14.00;99.90;;;;;;5054019;28;20455;-84
2022/05/24 01:58:35;;;;;;;213.27;205.47;;;14.00;99.90;;;;;;5052599;28;20495;-83
2022/05/24 02:01:06;;;;;;;195.80;188.50;;;14.00;99.90;;;;;;5053757;28;20483;-81
2022/05/24 02:03:33;;;;;;;129.33;124.20;;;13.90;99.90;;;;;;5053885;28;20827;-82
2022/05/24 02:06:00;;;;;;;127.73;122.33;;;13.90;99.90;;;;;;5052752;28;20467;-81
2022/05/24 02:08:26;;;;;;;100.00;95.37;;;13.90;99.90;;;;;;5052112;28;20804;-81
2022/05/24 02:10:56;;;;;;;66.30;62.93;;;14.00;99.90;;;;;;5052809;28;20483;-81
2022/05/24 02:13:29;;;;;;;39.77;37.47;;;13.90;99.90;;;;;;5053290;28;20458;-83
2022/05/24 02:16:00;;;;;;;32.57;30.53;;;14.00;99.90;;;;;;5053086;28;20462;-81
2022/05/24 02:18:29;;;;;;;24.03;21.87;;;14.00;99.90;;;;;;5052332;28;20542;-82
2022/05/24 02:20:56;;;;;;;23.03;21.10;;;14.00;99.90;;;;;;5053299;28;20475;-82
2022/05/24 02:23:23;;;;;;;22.03;20.07;;;14.00;99.90;;;;;;5052692;28;20466;-82
2022/05/24 02:25:52;;;;;;;19.27;17.70;;;14.00;99.90;;;;;;5052788;28;20455;-84
2022/05/24 02:28:21;;;;;;;12.93;11.47;;;13.90;99.90;;;;;;5053277;28;20463;-82
2022/05/24 02:30:51;;;;;;;11.80;9.57;;;13.90;99.90;;;;;;5052286;28;20478;-82
2022/05/24 02:33:20;;;;;;;12.70;7.40;;;13.80;99.90;;;;;;5052333;28;20455;-81
2022/05/24 02:35:47;;;;;;;10.30;7.10;;;13.90;99.90;;;;;;5052373;28;20451;-82
2022/05/24 02:38:14;;;;;;;11.73;7.63;;;13.70;99.90;;;;;;5051339;28;20990;-81
2022/05/24 02:43:25;;;;;;;11.90;10.10;;;13.60;99.90;;;;;;5051970;28;20439;-82
2022/05/24 02:45:52;;;;;;;12.00;10.97;;;13.30;99.90;;;;;;5052850;28;20451;-81
2022/05/24 02:48:20;;;;;;;16.00;14.60;;;13.30;99.90;;;;;;5051023;28;20493;-81
2022/05/24 02:50:47;;;;;;;22.30;20.10;;;13.20;99.90;;;;;;5051507;28;20475;-81
2022/05/24 02:53:13;;;;;;;34.30;32.10;;;13.10;99.90;;;;;;5051810;28;20452;-81
2022/05/24 02:55:40;;;;;;;53.07;50.73;;;12.90;99.90;;;;;;5051439;28;20462;-82
2022/05/24 02:58:07;;;;;;;55.67;53.27;;;12.90;99.90;;;;;;5051255;28;20460;-81
2022/05/24 03:00:34;;;;;;;72.50;69.33;;;12.80;99.90;;;;;;5051521;28;20475;-82
2022/05/24 03:03:01;;;;;;;68.17;65.20;;;12.80;99.90;;;;;;5051576;28;20486;-82
2022/05/24 03:05:30;;;;;;;81.40;78.00;;;12.90;99.90;;;;;;5051913;28;20462;-81
2022/05/24 03:10:41;;;;;;;72.93;69.80;;;12.90;99.90;;;;;;5054953;28;20520;-81
2022/05/24 03:15:53;;;;;;;61.67;58.50;;;13.00;99.90;;;;;;5055279;28;20840;-82
2022/05/24 03:18:22;;;;;;;64.60;61.70;;;12.80;99.90;;;;;;5054805;28;20455;-81
2022/05/24 03:20:50;;;;;;;62.10;59.00;;;12.90;99.90;;;;;;5055016;28;21031;-82
2022/05/24 03:23:17;;;;;;;69.93;67.03;;;12.90;99.90;;;;;;5054928;28;20475;-81
2022/05/24 03:25:45;;;;;;;62.60;59.67;;;12.90;99.90;;;;;;5055290;28;20474;-81
2022/05/24 03:28:11;;;;;;;56.73;53.20;;;13.00;99.90;;;;;;5054487;28;20451;-80
2022/05/24 03:30:41;;;;;;;40.90;38.47;;;13.00;99.90;;;;;;5055002;28;20478;-82
2022/05/24 03:33:08;;;;;;;31.00;28.83;;;12.90;99.90;;;;;;5054940;28;20809;-82
2022/05/24 03:35:34;;;;;;;31.43;29.73;;;13.00;99.90;;;;;;5055197;28;20455;-81
2022/05/24 03:38:03;;;;;;;34.73;32.40;;;13.00;99.90;;;;;;5054715;28;20458;-81
2022/05/24 03:40:30;;;;;;;35.13;32.90;;;12.90;99.90;;;;;;5053968;28;20471;-81
2022/05/24 03:42:57;;;;;;;40.17;37.67;;;12.90;99.90;;;;;;5054733;28;20479;-82
2022/05/24 03:45:24;;;;;;;52.17;49.47;;;12.80;99.90;;;;;;5054702;28;20452;-82
2022/05/24 03:47:51;;;;;;;53.07;50.20;;;12.90;99.90;;;;;;5054605;28;20478;-81
2022/05/24 03:50:19;;;;;;;50.70;48.40;;;12.90;99.90;;;;;;5053708;28;20478;-81
2022/05/24 03:52:46;;;;;;;48.93;46.20;;;12.90;99.90;;;;;;5054666;28;20452;-81
2022/05/24 03:55:14;;;;;;;35.13;33.17;;;13.00;99.90;;;;;;5055280;28;20455;-82
2022/05/24 04:00:27;;;;;;;28.63;26.73;;;13.10;99.90;;;;;;5053901;28;20537;-82
2022/05/24 04:02:53;;;;;;;18.83;17.53;;;13.30;99.90;;;;;;5055503;28;20475;-81
2022/05/24 04:05:20;;;;;;;13.00;11.60;;;13.20;99.90;;;;;;5055453;28;20836;-81
2022/05/24 04:07:47;;;;;;;14.53;11.20;;;13.20;99.90;;;;;;5054923;28;20455;-83
2022/05/24 04:10:17;;;;;;;14.07;12.67;;;13.40;99.90;;;;;;5055051;28;20476;-82
2022/05/24 04:12:44;;;;;;;10.33;7.60;;;13.20;99.90;;;;;;5057280;28;20921;-82
2022/05/24 04:15:11;;;;;;;12.40;8.53;;;13.30;99.90;;;;;;5056391;28;20450;-84
2022/05/24 04:17:38;;;;;;;9.10;8.20;;;13.40;99.90;;;;;;5060623;28;20456;-83
2022/05/24 04:20:07;;;;;;;17.60;11.97;;;13.30;99.90;;;;;;5059346;28;20542;-83
2022/05/24 04:22:34;;;;;;;16.13;14.67;;;13.30;99.90;;;;;;5058269;28;20471;-83
2022/05/24 04:25:01;;;;;;;26.03;24.47;;;13.20;99.90;;;;;;5058037;28;20817;-82
2022/05/24 04:27:30;;;;;;;36.27;34.30;;;13.00;99.90;;;;;;5057948;28;20462;-83
2022/05/24 04:29:57;;;;;;;65.40;62.17;;;13.00;99.90;;;;;;5056241;28;20490;-83
2022/05/24 04:32:27;;;;;;;156.47;150.77;;;13.00;99.90;;;;;;5056434;28;20458;-83
2022/05/24 04:34:57;;;;;;;217.87;210.33;;;12.70;99.90;;;;;;5056450;28;20482;-83
2022/05/24 04:37:23;;;;;;;300.60;289.60;;;12.60;99.90;;;;;;5055264;28;20498;-83
2022/05/24 04:39:50;;;;;;;393.07;378.90;;;12.50;99.90;;;;;;5055004;28;20497;-82
2022/05/24 04:42:19;;;;;;;477.73;458.83;;;12.20;99.90;;;;;;5055569;28;20851;-83
2022/05/24 04:44:49;;;;;;;584.70;558.63;;;12.20;99.90;;;;;;5055729;28;20883;-83
2022/05/24 04:47:17;;;;;;;660.63;627.77;;;12.00;99.90;;;;;;5055879;28;20451;-82
2022/05/24 04:49:46;;;;;;;644.03;615.40;;;12.10;99.90;;;;;;5054331;28;20444;-82
2022/05/24 04:52:15;;;;;;;685.30;651.50;;;12.00;99.90;;;;;;5055134;28;20516;-83
2022/05/24 04:54:44;;;;;;;707.73;668.93;;;12.00;99.90;;;;;;5055071;28;20455;-82
2022/05/24 04:57:11;;;;;;;723.00;680.70;;;11.90;99.90;;;;;;5054268;28;20460;-82
2022/05/24 04:59:38;;;;;;;727.10;684.47;;;11.90;99.90;;;;;;5054881;28;20524;-83
2022/05/24 05:02:08;;;;;;;729.10;687.07;;;11.90;99.90;;;;;;5055192;28;20479;-83
2022/05/24 05:04:35;;;;;;;719.43;676.47;;;12.00;99.90;;;;;;5055887;28;20941;-83
2022/05/24 05:07:02;;;;;;;729.13;685.07;;;11.90;99.90;;;;;;5055201;28;20459;-83
2022/05/24 05:09:34;;;;;;;713.83;671.07;;;12.00;99.90;;;;;;5053993;28;20458;-83
2022/05/24 05:12:02;;;;;;;714.63;671.97;;;12.10;99.90;;;;;;5079688;22;20491;-80
2022/05/24 05:14:29;;;;;;;721.10;676.90;;;12.00;99.90;;;;;;5054755;28;20462;-80
2022/05/24 05:16:56;;;;;;;708.83;665.63;;;12.00;99.90;;;;;;5054636;28;20451;-81
2022/05/24 05:19:24;;;;;;;709.13;666.90;;;11.90;99.90;;;;;;5053506;28;20833;-80
2022/05/24 05:21:51;;;;;;;711.87;667.40;;;12.10;99.90;;;;;;5053575;28;20984;-79
2022/05/24 05:24:18;;;;;;;713.80;668.23;;;11.80;99.90;;;;;;5054101;28;20850;-79
2022/05/24 05:26:44;;;;;;;706.10;666.90;;;11.80;99.90;;;;;;5053986;28;20451;-80
2022/05/24 05:29:11;;;;;;;626.13;599.47;;;11.70;99.90;;;;;;5054471;28;20467;-79
2022/05/24 05:31:37;;;;;;;659.97;630.77;;;11.70;99.90;;;;;;5054667;28;20846;-80
2022/05/24 05:34:04;;;;;;;697.70;663.83;;;11.60;99.90;;;;;;5054423;28;20974;-79
2022/05/24 05:36:33;;;;;;;698.50;665.10;;;11.60;99.90;;;;;;5056052;28;20199;-78
2022/05/24 05:39:01;;;;;;;670.73;640.73;;;11.40;99.90;;;;;;5057402;28;20454;-79
2022/05/24 05:41:29;;;;;;;676.00;643.53;;;11.40;99.90;;;;;;5057165;28;20478;-80
2022/05/24 05:43:57;;;;;;;707.40;670.90;;;11.20;99.90;;;;;;5052034;28;20490;-79
2022/05/24 05:46:24;;;;;;;722.40;681.13;;;11.20;99.90;;;;;;5052641;28;20463;-79
2022/05/24 05:48:51;;;;;;;737.30;691.40;;;11.40;99.90;;;;;;5052400;28;20478;-80
2022/05/24 05:51:20;;;;;;;743.77;693.77;;;11.10;99.90;;;;;;5052200;28;20470;-80
2022/05/24 05:53:48;;;;;;;738.53;687.73;;;11.20;99.90;;;;;;5053281;28;20463;-80
2022/05/24 05:56:17;;;;;;;741.63;691.40;;;11.20;99.90;;;;;;5052928;28;20463;-81
2022/05/24 05:58:43;;;;;;;736.53;685.83;;;11.40;99.90;;;;;;5050347;28;20452;-80
2022/05/24 06:01:15;;;;;;;737.53;686.80;;;11.20;99.90;;;;;;5053564;28;20486;-80
2022/05/24 06:03:42;;;;;;;750.27;697.77;;;11.20;99.90;;;;;;5053053;28;21004;-80
2022/05/24 06:06:12;;;;;;;747.47;695.40;;;11.10;99.90;;;;;;5051635;28;20509;-80
2022/05/24 06:08:38;;;;;;;748.63;695.77;;;11.30;99.90;;;;;;5054015;28;20458;-80
2022/05/24 06:11:06;;;;;;;734.80;685.50;;;11.30;99.90;;;;;;5052552;28;20490;-81
2022/05/24 06:13:34;;;;;;;728.07;677.67;;;11.20;99.90;;;;;;5051688;28;20447;-80
2022/05/24 06:16:00;;;;;;;747.67;696.60;;;11.30;99.90;;;;;;5054387;28;20462;-81
2022/05/24 06:18:27;;;;;;;730.50;679.60;;;11.20;99.90;;;;;;5053395;28;20926;-82
2022/05/24 06:20:54;;;;;;;722.13;671.10;;;11.30;99.90;;;;;;5053436;28;20548;-80
2022/05/24 06:23:21;;;;;;;736.47;683.90;;;11.40;99.90;;;;;;5055768;28;21030;-80
2022/05/24 06:25:48;;;;;;;730.60;680.07;;;11.30;99.90;;;;;;5053107;28;20455;-80
2022/05/24 06:28:17;;;;;;;716.23;671.53;;;11.20;99.90;;;;;;5052110;28;20451;-79
2022/05/24 06:30:44;;;;;;;715.73;669.97;;;11.40;99.90;;;;;;5055195;28;20478;-78
2022/05/24 06:33:11;;;;;;;717.27;669.83;;;11.20;99.90;;;;;;5053199;28;20459;-80
2022/05/24 06:35:40;;;;;;;729.47;681.80;;;11.40;99.90;;;;;;5053241;28;20456;-81
2022/05/24 06:38:07;;;;;;;716.77;670.07;;;11.30;99.90;;;;;;5054091;28;20462;-79
2022/05/24 06:40:34;;;;;;;720.93;673.10;;;11.40;99.90;;;;;;5053204;28;20474;-81
2022/05/24 06:43:02;;;;;;;723.13;673.67;;;11.60;99.90;;;;;;5052237;28;21021;-81
2022/05/24 06:45:30;;;;;;;720.97;674.57;;;11.70;99.90;;;;;;5056457;28;20451;-81
2022/05/24 06:47:57;;;;;;;722.50;674.50;;;12.10;99.90;;;;;;5056468;28;20502;-80
2022/05/24 06:50:25;;;;;;;716.60;670.90;;;12.20;99.90;;;;;;5055753;28;20479;-81
2022/05/24 06:52:54;;;;;;;719.97;673.33;;;12.20;99.90;;;;;;5058764;28;20500;-81
2022/05/24 06:55:21;;;;;;;723.10;678.40;;;12.40;99.90;;;;;;5057979;28;20455;-81
2022/05/24 06:57:48;;;;;;;684.67;648.23;;;12.70;99.90;;;;;;5058762;28;20455;-82
2022/05/24 07:03:06;;;;;;;524.10;504.77;;;12.90;99.90;;;;;;5058944;28;20471;-81
2022/05/24 07:05:33;;;;;;;322.13;311.90;;;13.10;99.90;;;;;;5056421;28;20522;-81
2022/05/24 07:08:01;;;;;;;430.00;415.60;;;13.30;99.90;;;;;;5057886;28;20466;-82
2022/05/24 07:10:29;;;;;;;303.00;293.93;;;13.30;99.90;;;;;;5055805;28;21480;-81
2022/05/24 07:13:01;;;;;;;139.17;134.63;;;13.30;99.90;;;;;;5057236;28;20462;-79
2022/05/24 07:15:28;;;;;;;99.13;95.10;;;13.40;99.90;;;;;;5056611;28;20497;-81
2022/05/24 07:17:55;;;;;;;61.60;59.00;;;13.30;99.90;;;;;;5056915;28;20466;-81
2022/05/24 07:20:23;;;;;;;64.37;61.73;;;13.50;99.90;;;;;;5055897;28;20471;-81
2022/05/24 07:22:50;;;;;;;119.20;114.30;;;13.60;99.90;;;;;;5056573;28;20695;-81
2022/05/24 07:25:17;;;;;;;34.00;32.10;;;13.90;99.90;;;;;;5055742;28;20451;-79
2022/05/24 07:27:44;;;;;;;17.93;16.40;;;14.30;99.90;;;;;;5056409;28;20462;-81
2022/05/24 07:30:11;;;;;;;15.43;4.27;;;14.60;99.90;;;;;;5055997;28;20463;-80
2022/05/24 07:32:38;;;;;;;4.87;3.10;;;14.80;99.90;;;;;;5056466;28;20459;-81
2022/05/24 07:35:06;;;;;;;7.30;3.40;;;15.10;99.90;;;;;;5056141;28;20462;-80
2022/05/24 07:37:34;;;;;;;8.57;3.13;;;15.10;97.30;;;;;;5056296;28;20453;-81
2022/05/24 07:48:10;;;;;;;8.80;2.20;;;15.10;93.70;;;;;;5055591;28;20439;-78
2022/05/24 07:50:36;;;;;;;5.67;2.43;;;15.20;90.30;;;;;;5056453;28;20535;-81
2022/05/24 07:53:05;;;;;;;4.70;2.17;;;15.80;90.90;;;;;;5056466;28;20975;-81
2022/05/24 07:55:31;;;;;;;4.78;2.08;;;16.10;84.70;;;;;;5057566;28;20458;-77
2022/05/24 07:57:59;;;;;;;5.80;2.50;;;15.80;80.40;;;;;;5057260;28;20208;-81
2022/05/24 08:00:26;;;;;;;5.10;2.07;;;16.00;80.50;;;;;;5059626;28;20485;-81
2022/05/24 08:02:54;;;;;;;6.47;1.77;;;16.10;77.60;;;;;;5057332;28;20855;-81
2022/05/24 08:05:22;;;;;;;5.50;1.73;;;16.40;79.70;;;;;;5057729;28;20465;-82
2022/05/24 08:07:50;;;;;;;9.33;2.00;;;16.70;75.10;;;;;;5058731;28;20463;-82
2022/05/24 08:10:19;;;;;;;4.90;1.60;;;16.70;71.00;;;;;;5056772;28;20993;-82
2022/05/24 08:12:45;;;;;;;5.53;1.80;;;17.20;68.10;;;;;;5058045;28;20464;-82
2022/05/24 08:15:13;;;;;;;5.70;1.50;;;18.10;65.90;;;;;;5057955;28;20964;-83
2022/05/24 08:17:40;;;;;;;8.43;1.97;;;18.10;64.10;;;;;;5060671;28;20867;-83
2022/05/24 08:20:09;;;;;;;4.87;1.43;;;17.60;59.90;;;;;;5058124;28;20464;-82
2022/05/24 08:22:37;;;;;;;7.10;1.77;;;17.30;59.40;;;;;;5058811;28;20465;-82
2022/05/24 08:25:05;;;;;;;8.00;1.50;;;17.80;61.60;;;;;;5058657;28;20448;-82
2022/05/24 08:27:33;;;;;;;5.03;1.50;;;18.20;58.70;;;;;;5058290;28;20898;-82
2022/05/24 08:30:01;;;;;;;6.63;3.20;;;17.50;56.30;;;;;;5059459;28;20479;-81
2022/05/24 08:32:27;;;;;;;5.33;2.20;;;17.50;56.80;;;;;;5059708;28;20451;-82
2022/05/24 08:34:54;;;;;;;9.77;2.33;;;17.20;56.30;;;;;;5060175;28;20459;-82
2022/05/24 08:37:22;;;;;;;5.47;1.70;;;16.90;57.10;;;;;;5059808;28;20776;-82
2022/05/24 08:39:49;;;;;;;6.20;2.20;;;17.10;56.90;;;;;;5059352;28;20453;-82
2022/05/24 08:42:24;;;;;;;5.83;1.80;;;17.20;56.50;;;;;;5062290;28;20481;-82
2022/05/24 08:50:33;;;;;;;5.13;1.50;;;17.30;55.40;;;;;;5059081;28;20459;-82
2022/05/24 08:53:04;;;;;;;6.57;1.63;;;17.30;53.70;;;;;;5059270;28;20461;-82
2022/05/24 08:55:33;;;;;;;6.87;1.67;;;17.20;53.10;;;;;;5059173;28;20474;-82
2022/05/24 08:58:01;;;;;;;5.87;2.00;;;16.50;53.00;;;;;;5060009;28;20522;-82
2022/05/24 09:00:35;;;;;;;5.27;1.83;;;16.60;54.50;;;;;;5058978;28;20478;-82
2022/05/24 09:03:05;;;;;;;7.60;1.77;;;16.20;57.50;;;;;;5058783;28;20827;-82
2022/05/24 09:05:36;;;;;;;4.50;1.77;;;15.90;57.30;;;;;;5058021;28;20505;-81
2022/05/24 09:08:21;;;;;;;4.10;1.40;;;16.00;58.10;;;;;;5058888;28;20462;-81
2022/05/24 09:10:54;;;;;;;7.43;1.70;;;16.10;58.20;;;;;;5058910;28;20451;-82
2022/05/24 09:13:45;;;;;;;4.60;1.70;;;16.20;57.40;;;;;;5058549;28;20204;-83
2022/05/24 09:16:15;;;;;;;5.03;1.77;;;16.30;54.00;;;;;;5057213;28;20448;-81
2022/05/24 09:18:51;;;;;;;5.80;1.70;;;17.00;53.80;;;;;;5054162;28;20478;-80
2022/05/24 09:21:22;;;;;;;6.13;2.27;;;17.90;52.90;;;;;;5057431;28;20504;-82
2022/05/24 09:23:53;;;;;;;4.00;1.60;;;18.20;48.20;;;;;;5055077;28;20485;-82
2022/05/24 09:26:22;;;;;;;4.37;1.57;;;18.00;46.80;;;;;;5054365;28;20812;-82
2022/05/24 09:28:51;;;;;;;6.27;1.80;;;18.40;45.60;;;;;;5056412;28;20495;-82
2022/05/24 09:31:25;;;;;;;3.80;1.50;;;18.30;47.50;;;;;;5057622;28;20481;-82
2022/05/24 09:33:56;;;;;;;4.57;1.70;;;18.00;43.20;;;;;;5057879;28;20454;-81
2022/05/24 09:36:33;;;;;;;5.00;1.70;;;17.30;43.70;;;;;;5057411;28;20462;-82
2022/05/24 09:39:01;;;;;;;4.33;1.70;;;17.30;46.00;;;;;;5057001;28;20453;-81
2022/05/24 09:41:28;;;;;;;4.90;1.57;;;16.80;44.80;;;;;;5058196;28;20481;-82
2022/05/24 09:44:03;;;;;;;8.70;1.57;;;17.50;48.40;;;;;;5056083;28;20563;-81
2022/05/24 09:46:32;;;;;;;6.03;1.83;;;17.50;46.40;;;;;;5055223;28;20461;-81
2022/05/24 09:49:01;;;;;;;4.93;1.33;;;17.90;47.60;;;;;;5055186;28;20493;-81
2022/05/24 09:51:33;;;;;;;5.30;2.17;;;17.80;43.80;;;;;;5057208;28;20489;-82
2022/05/24 09:54:00;;;;;;;5.47;1.60;;;17.90;44.70;;;;;;5056359;28;20451;-81
2022/05/24 09:56:30;;;;;;;5.10;1.80;;;17.60;42.10;;;;;;5057706;28;20451;-82
2022/05/24 09:58:59;;;;;;;4.43;1.47;;;17.80;39.20;;;;;;5056111;28;20453;-82
2022/05/24 10:01:40;;;;;;;4.97;2.07;;;17.50;39.30;;;;;;5057497;28;20484;-81
2022/05/24 10:04:17;;;;;;;7.30;1.43;;;17.70;42.30;;;;;;5061164;28;20477;-84
2022/05/24 10:06:52;;;;;;;7.70;1.77;;;18.10;41.10;;;;;;5062541;28;20820;-82
2022/05/24 10:09:52;;;;;;;4.10;1.40;;;18.50;37.90;;;;;;5063382;28;20463;-83
2022/05/24 10:12:44;;;;;;;4.13;1.27;;;18.80;37.10;;;;;;5050898;28;20574;-83
2022/05/24 10:15:20;;;;;;;4.50;1.63;;;18.60;34.00;;;;;;5065222;28;20450;-83
2022/05/24 10:18:08;;;;;;;7.40;1.50;;;18.40;32.50;;;;;;5066835;28;20519;-79
2022/05/24 10:20:40;;;;;;;5.93;1.57;;;18.80;35.30;;;;;;5058245;28;20507;-81
2022/05/24 10:23:11;;;;;;;5.40;1.90;;;18.60;34.80;;;;;;5055499;28;20463;-80
2022/05/24 10:25:41;;;;;;;4.57;1.87;;;18.80;37.50;;;;;;5055531;28;20454;-81
2022/05/24 10:28:16;;;;;;;5.10;1.60;;;18.90;34.30;;;;;;5055358;28;20976;-79
2022/05/24 10:30:55;;;;;;;4.53;1.70;;;18.80;34.20;;;;;;5054261;28;20478;-82
2022/05/24 10:39:38;;;;;;;4.40;1.53;;;19.60;31.10;;;;;;5055579;28;20449;-82
2022/05/24 10:42:13;;;;;;;4.70;1.27;;;20.20;31.60;;;;;;5051722;28;20493;-81
2022/05/24 10:44:45;;;;;;;4.10;1.30;;;20.30;32.50;;;;;;5055376;28;20850;-81
2022/05/24 10:47:22;;;;;;;3.90;1.10;;;20.40;28.60;;;;;;5055378;28;20452;-81
2022/05/24 10:49:56;;;;;;;4.60;1.27;;;20.10;29.00;;;;;;5054022;28;20466;-82
2022/05/24 10:52:31;;;;;;;4.83;1.30;;;20.40;28.50;;;;;;5056766;28;20452;-82
2022/05/24 10:55:02;;;;;;;8.07;1.63;;;20.70;25.80;;;;;;5054870;28;20953;-81
2022/05/24 10:57:32;;;;;;;5.20;1.63;;;21.40;29.30;;;;;;5055082;28;20454;-80
2022/05/24 11:00:07;;;;;;;3.80;0.90;;;21.60;27.20;;;;;;5056420;28;20525;-79
2022/05/24 11:02:39;;;;;;;4.97;1.40;;;21.40;22.70;;;;;;5055849;28;20555;-82
2022/05/24 11:05:15;;;;;;;7.70;1.50;;;22.40;20.80;;;;;;5055993;28;20472;-82
2022/05/24 11:07:42;;;;;;;6.53;1.30;;;22.90;17.20;;;;;;5056862;28;20482;-82
2022/05/24 11:10:19;;;;;;;7.23;1.60;;;22.80;16.60;;;;;;5055684;28;20478;-81
2022/05/24 11:12:50;;;;;;;4.40;1.40;;;23.10;14.40;;;;;;5063685;22;20479;-82
2022/05/24 11:15:22;;;;;;;4.53;1.10;;;23.60;15.20;;;;;;5030274;28;20451;-79
2022/05/24 11:17:49;;;;;;;6.60;1.30;;;22.90;14.30;;;;;;5032689;28;20455;-81
2022/05/24 11:20:23;;;;;;;3.80;1.10;;;23.80;15.00;;;;;;5031515;28;20956;-81
2022/05/24 11:23:02;;;;;;;4.53;1.40;;;24.00;12.30;;;;;;5032370;28;20473;-81
2022/05/24 11:25:36;;;;;;;4.73;1.43;;;23.70;12.70;;;;;;5032442;28;20976;-80
2022/05/24 11:28:24;;;;;;;6.93;1.60;;;23.60;10.50;;;;;;5032869;28;20456;-80
2022/05/24 11:30:52;;;;;;;5.43;1.33;;;24.50;9.30;;;;;;5032716;28;20455;-80
2022/05/24 11:33:35;;;;;;;4.90;1.30;;;24.10;12.50;;;;;;5036025;28;20472;-81
2022/05/24 11:36:27;;;;;;;4.37;1.10;;;24.80;8.00;;;;;;5036553;28;20443;-82
2022/05/24 11:38:56;;;;;;;9.63;1.97;;;25.40;2.90;;;;;;5035889;28;20839;-81
2022/05/24 11:41:30;;;;;;;4.90;1.30;;;24.50;4.20;;;;;;5036412;28;20858;-81
2022/05/24 11:44:01;;;;;;;6.87;1.50;;;23.60;7.20;;;;;;5036902;28;20519;-80
2022/05/24 11:46:45;;;;;;;5.43;1.60;;;22.30;10.30;;;;;;5036155;28;20456;-80
2022/05/24 11:49:38;;;;;;;10.10;1.60;;;22.50;12.60;;;;;;5035780;28;20436;-80
2022/05/24 11:52:45;;;;;;;7.20;1.23;;;22.40;10.90;;;;;;5036650;28;20478;-80
2022/05/24 11:55:43;;;;;;;5.17;1.43;;;23.10;10.50;;;;;;5036231;28;20471;-80
2022/05/24 11:58:41;;;;;;;5.20;1.20;;;23.60;9.50;;;;;;5036038;28;20884;-78
2022/05/24 12:01:30;;;;;;;10.97;1.53;;;24.30;8.30;;;;;;5035977;28;20459;-80
2022/05/24 12:10:51;;;;;;;4.87;1.27;;;22.70;8.60;;;;;;5035271;28;20450;-81
2022/05/24 12:13:34;;;;;;;4.00;1.10;;;21.60;9.10;;;;;;5033398;28;20487;-81
2022/05/24 12:16:04;;;;;;;5.23;1.20;;;21.40;11.60;;;;;;5035618;28;20456;-82
2022/05/24 12:18:56;;;;;;;6.40;1.50;;;21.30;9.90;;;;;;5034820;28;20462;-80
2022/05/24 12:21:40;;;;;;;5.37;1.30;;;21.50;10.00;;;;;;5031337;28;20458;-80
2022/05/24 12:24:53;;;;;;;5.20;1.40;;;21.90;8.90;;;;;;5036455;28;20471;-81
2022/05/24 12:27:32;;;;;;;7.97;1.60;;;21.80;5.80;;;;;;5036833;28;20545;-81
2022/05/24 12:30:15;;;;;;;4.10;1.10;;;21.10;7.30;;;;;;5033067;28;20524;-80
2022/05/24 12:32:42;;;;;;;4.07;1.10;;;20.20;11.80;;;;;;5035909;28;20474;-80
2022/05/24 12:35:12;;;;;;;9.73;1.93;;;20.20;12.40;;;;;;5035208;28;20454;-80
2022/05/24 12:37:45;;;;;;;4.83;1.57;;;19.80;13.80;;;;;;5038072;28;20457;-80
2022/05/24 12:40:18;;;;;;;6.10;2.00;;;19.90;15.30;;;;;;5037596;28;20833;-80
2022/05/24 12:42:48;;;;;;;6.97;1.40;;;19.90;12.90;;;;;;5038638;28;20480;-80
2022/05/24 12:45:21;;;;;;;8.10;1.50;;;19.90;16.00;;;;;;5037993;28;20464;-81
2022/05/24 12:47:52;;;;;;;5.30;1.67;;;19.90;13.90;;;;;;5038333;28;20968;-80
2022/05/24 12:50:30;;;;;;;6.63;1.53;;;20.10;15.90;;;;;;5038071;28;20458;-80
2022/05/24 12:53:03;;;;;;;5.07;1.50;;;20.90;15.60;;;;;;5038403;28;20993;-80
2022/05/24 12:58:27;;;;;;;5.17;1.43;;;20.90;14.10;;;;;;5038010;28;20451;-81
2022/05/24 13:01:13;;;;;;;4.40;1.20;;;20.40;13.50;;;;;;5038725;28;20442;-80
2022/05/24 13:03:45;;;;;;;5.20;1.50;;;20.50;17.60;;;;;;5040729;28;20448;-81
2022/05/24 13:06:21;;;;;;;5.50;1.50;;;20.40;12.90;;;;;;5050130;28;20442;-83
2022/05/24 13:08:48;;;;;;;4.30;1.70;;;20.80;12.70;;;;;;5048745;28;20454;-83
2022/05/24 13:11:15;;;;;;;4.50;1.43;;;22.50;10.80;;;;;;5050882;28;20447;-82
2022/05/24 13:13:44;;;;;;;4.87;1.70;;;23.70;7.20;;;;;;5049913;28;20463;-82
2022/05/24 13:16:11;;;;;;;8.30;1.80;;;22.80;6.20;;;;;;5051092;28;20832;-83
2022/05/24 13:18:48;;;;;;;4.40;1.20;;;22.30;6.40;;;;;;5050670;28;20459;-82
2022/05/24 13:21:22;;;;;;;6.43;1.60;;;23.00;7.90;;;;;;5052219;28;20444;-84
2022/05/24 13:23:49;;;;;;;4.80;1.30;;;23.40;7.00;;;;;;5051388;28;20474;-82
2022/05/24 13:26:19;;;;;;;5.87;1.33;;;23.50;6.80;;;;;;5050635;28;20960;-82
2022/05/24 13:28:50;;;;;;;5.07;1.63;;;22.50;6.30;;;;;;5050527;28;20443;-84
2022/05/24 13:34:17;;;;;;;3.80;1.10;;;21.80;8.90;;;;;;5050780;28;20441;-82